createdAt,value
2022-10-17T00:01:25.472Z,23.28
2022-10-17T00:04:27.692Z,23.27
2022-10-17T00:07:30.918Z,23.27
2022-10-17T00:10:33.332Z,23.27
2022-10-17T00:13:36.003Z,23.29
2022-10-17T00:16:38.189Z,23.29
2022-10-17T00:19:40.368Z,23.29
2022-10-17T00:22:42.726Z,23.30
2022-10-17T00:25:44.898Z,23.32
2022-10-17T00:28:48.763Z,23.32
2022-10-17T00:35:02.443Z,23.35
2022-10-17T00:38:04.608Z,23.33
2022-10-17T00:41:08.064Z,23.37
2022-10-17T00:44:31.903Z,23.38
2022-10-17T00:47:35.953Z,23.39
2022-10-17T00:50:41.731Z,23.40
2022-10-17T00:53:44.326Z,23.41
2022-10-17T00:56:47.824Z,23.43
2022-10-17T00:59:53.170Z,23.44
2022-10-17T01:02:55.486Z,23.46
2022-10-17T01:05:57.738Z,23.45
2022-10-17T01:09:00.174Z,23.49
2022-10-17T01:12:02.301Z,23.52
2022-10-17T01:15:47.572Z,23.54
2022-10-17T01:19:13.686Z,23.55
2022-10-17T01:22:22.215Z,23.57
2022-10-17T01:25:46.473Z,23.58
2022-10-17T01:29:00.519Z,23.59
2022-10-17T01:32:17.810Z,23.59
2022-10-17T01:36:06.948Z,23.60
2022-10-17T01:39:30.123Z,23.60
2022-10-17T01:42:48.724Z,23.60
2022-10-17T01:46:00.653Z,23.61
2022-10-17T01:49:05.857Z,23.60
2022-10-17T01:52:19.869Z,23.59
2022-10-17T01:55:29.306Z,23.60
2022-10-17T01:58:44.180Z,23.59
2022-10-17T02:01:52.376Z,23.55
2022-10-17T02:04:56.955Z,23.58
2022-10-17T02:07:59.179Z,23.55
2022-10-17T02:11:07.840Z,23.56
2022-10-17T02:14:42.016Z,23.54
2022-10-17T02:18:21.744Z,23.52
2022-10-17T02:22:01.838Z,23.51
2022-10-17T02:25:44.495Z,23.50
2022-10-17T02:29:00.613Z,23.48
2022-10-17T02:32:12.339Z,23.47
2022-10-17T02:35:15.991Z,23.46
2022-10-17T02:38:18.872Z,23.45
2022-10-17T02:41:24.387Z,23.44
2022-10-17T02:44:29.217Z,23.43
2022-10-17T02:48:03.430Z,23.43
2022-10-17T02:51:28.784Z,23.41
2022-10-17T02:54:45.797Z,23.40
2022-10-17T02:57:56.043Z,23.39
2022-10-17T03:00:59.443Z,23.38
2022-10-17T03:04:11.079Z,23.36
2022-10-17T03:07:13.589Z,23.37
2022-10-17T03:10:16.714Z,23.35
2022-10-17T03:13:19.333Z,23.36
2022-10-17T03:16:21.911Z,23.35
2022-10-17T03:19:24.292Z,23.35
2022-10-17T03:22:28.511Z,23.34
2022-10-17T03:25:32.742Z,23.34
2022-10-17T03:28:36.111Z,23.32
2022-10-17T03:31:38.565Z,23.32
2022-10-17T03:34:42.101Z,23.32
2022-10-17T03:37:45.364Z,23.31
2022-10-17T03:40:55.126Z,23.30
2022-10-17T03:43:57.562Z,23.28
2022-10-17T03:47:00.597Z,23.26
2022-10-17T03:50:03.451Z,23.27
2022-10-17T03:53:08.840Z,23.27
2022-10-17T03:56:13.797Z,23.25
2022-10-17T03:59:16.934Z,23.22
2022-10-17T04:02:26.151Z,23.23
2022-10-17T04:05:28.344Z,23.21
2022-10-17T04:08:32.056Z,23.20
2022-10-17T04:11:47.907Z,23.20
2022-10-17T04:14:50.121Z,23.15
2022-10-17T04:17:52.817Z,23.20
2022-10-17T04:20:55.005Z,23.20
2022-10-17T04:23:59.789Z,23.19
2022-10-17T04:27:31.071Z,23.19
2022-10-17T04:30:33.654Z,23.17
2022-10-17T04:33:35.971Z,23.18
2022-10-17T04:36:38.547Z,23.17
2022-10-17T04:39:40.742Z,23.17
2022-10-17T04:42:42.912Z,23.17
2022-10-17T04:45:47.663Z,23.16
2022-10-17T04:48:50.006Z,23.16
2022-10-17T04:51:52.312Z,23.15
2022-10-17T04:54:58.704Z,23.14
2022-10-17T04:58:00.896Z,23.13
2022-10-17T05:01:06.331Z,23.13
2022-10-17T05:04:08.798Z,23.14
2022-10-17T05:07:11.125Z,23.13
2022-10-17T05:10:29.026Z,23.13
2022-10-17T05:13:32.919Z,23.12
2022-10-17T05:16:35.929Z,23.11
2022-10-17T05:19:38.186Z,23.12
2022-10-17T05:22:42.352Z,23.11
2022-10-17T05:25:46.413Z,23.11
2022-10-17T05:28:48.675Z,23.10
2022-10-17T05:31:53.004Z,23.11
2022-10-17T05:34:55.613Z,23.11
2022-10-17T05:38:00.108Z,23.14
2022-10-17T05:41:04.702Z,23.18
2022-10-17T05:44:07.486Z,23.25
2022-10-17T05:47:15.471Z,23.32
2022-10-17T05:50:17.869Z,23.37
2022-10-17T05:53:40.940Z,23.45
2022-10-17T05:56:52.455Z,23.51
2022-10-17T05:59:57.459Z,23.59
2022-10-17T06:02:59.675Z,23.69
2022-10-17T06:06:10.141Z,23.79
2022-10-17T06:09:15.015Z,23.87
2022-10-17T06:12:21.288Z,23.91
2022-10-17T06:15:24.183Z,23.95
2022-10-17T06:18:33.043Z,24.02
2022-10-17T06:21:38.633Z,24.12
2022-10-17T06:24:46.249Z,24.22
2022-10-17T06:27:49.871Z,24.28
2022-10-17T06:30:52.134Z,24.31
2022-10-17T06:33:54.655Z,24.36
2022-10-17T06:40:07.944Z,24.43
2022-10-17T06:43:10.417Z,24.49
2022-10-17T06:46:30.673Z,24.53
2022-10-17T06:49:38.598Z,24.57
2022-10-17T06:52:58.670Z,24.58
2022-10-17T06:56:19.427Z,24.57
2022-10-17T06:59:29.046Z,24.53
2022-10-17T07:02:39.215Z,24.59
2022-10-17T07:05:41.445Z,24.63
2022-10-17T07:08:45.509Z,24.67
2022-10-17T07:11:50.510Z,24.68
2022-10-17T07:14:53.925Z,24.72
2022-10-17T07:17:57.516Z,24.78
2022-10-17T07:21:01.086Z,24.81
2022-10-17T07:24:03.712Z,24.86
2022-10-17T07:27:06.180Z,24.89
2022-10-17T07:30:10.386Z,24.92
2022-10-17T07:33:15.449Z,24.96
2022-10-17T07:36:18.434Z,24.98
2022-10-17T07:39:20.729Z,24.98
2022-10-17T07:42:23.342Z,25.01
2022-10-17T07:45:27.690Z,25.01
2022-10-17T07:48:30.654Z,25.02
2022-10-17T07:51:33.601Z,25.01
2022-10-17T07:54:35.797Z,25.01
2022-10-17T07:57:38.022Z,25.03
2022-10-17T08:00:40.652Z,25.03
2022-10-17T08:03:48.757Z,25.04
2022-10-17T08:06:56.398Z,25.05
2022-10-17T08:10:03.230Z,25.07
2022-10-17T08:13:07.650Z,25.09
2022-10-17T08:16:16.550Z,25.09
2022-10-17T08:19:18.810Z,25.11
2022-10-17T08:22:21.024Z,25.30
2022-10-17T08:25:23.895Z,25.35
2022-10-17T08:28:26.232Z,25.50
2022-10-17T08:31:28.848Z,25.61
2022-10-17T08:34:31.012Z,25.67
2022-10-17T08:37:33.537Z,25.72
2022-10-17T08:40:36.482Z,25.71
2022-10-17T08:44:22.075Z,25.66
2022-10-17T08:47:34.009Z,25.71
2022-10-17T08:50:45.733Z,25.72
2022-10-17T08:53:54.159Z,25.74
2022-10-17T08:56:57.630Z,25.73
2022-10-17T08:59:59.923Z,25.72
2022-10-17T09:03:32.162Z,25.68
2022-10-17T09:07:02.833Z,25.68
2022-10-17T09:10:26.575Z,25.63
2022-10-17T09:13:34.706Z,25.58
2022-10-17T09:17:07.438Z,25.58
2022-10-17T09:20:25.841Z,25.59
2022-10-17T09:23:34.883Z,25.58
2022-10-17T09:26:40.482Z,25.57
2022-10-17T09:29:48.776Z,25.53
2022-10-17T09:32:51.372Z,25.54
2022-10-17T09:35:54.772Z,25.50
2022-10-17T09:38:59.765Z,25.48
2022-10-17T09:42:03.180Z,25.47
2022-10-17T09:45:11.245Z,25.45
2022-10-17T09:48:25.085Z,25.46
2022-10-17T09:51:27.677Z,25.43
2022-10-17T09:54:53.245Z,25.42
2022-10-17T09:57:58.240Z,25.40
2022-10-17T10:01:26.132Z,25.27
2022-10-17T10:04:30.447Z,25.21
2022-10-17T10:07:36.613Z,25.22
2022-10-17T10:10:43.022Z,25.23
2022-10-17T10:13:47.822Z,25.19
2022-10-17T10:16:53.673Z,25.15
2022-10-17T10:19:56.271Z,25.09
2022-10-17T10:23:17.720Z,25.10
2022-10-17T10:26:29.506Z,25.11
2022-10-17T10:29:41.364Z,25.03
2022-10-17T10:32:47.874Z,24.94
2022-10-17T10:35:57.630Z,24.89
2022-10-17T10:39:02.458Z,24.82
2022-10-17T10:42:18.599Z,24.85
2022-10-17T10:45:43.346Z,24.84
2022-10-17T10:48:58.436Z,24.84
2022-10-17T10:52:03.572Z,24.81
2022-10-17T10:55:23.853Z,24.82
2022-10-17T10:58:53.774Z,24.77
2022-10-17T11:02:20.867Z,24.66
2022-10-17T11:05:28.875Z,24.68
2022-10-17T11:09:04.108Z,24.57
2022-10-17T11:12:13.204Z,24.47
2022-10-17T11:15:18.628Z,24.42
2022-10-17T11:18:30.080Z,24.33
2022-10-17T11:21:46.892Z,24.24
2022-10-17T11:24:56.894Z,24.17
2022-10-17T11:28:03.785Z,24.12
2022-10-17T11:31:13.475Z,24.05
2022-10-17T11:34:20.719Z,24.06
2022-10-17T11:37:40.253Z,24.06
2022-10-17T11:40:49.600Z,24.07
2022-10-17T11:43:59.651Z,24.00
2022-10-17T11:47:28.237Z,24.06
2022-10-17T11:54:15.989Z,24.22
2022-10-17T11:57:34.827Z,24.26
2022-10-17T12:00:48.875Z,24.28
2022-10-17T12:04:30.797Z,24.31
2022-10-17T12:07:48.669Z,24.25
2022-10-17T12:11:01.200Z,24.26
2022-10-17T12:14:23.813Z,24.27
2022-10-17T12:17:30.070Z,24.21
2022-10-17T12:20:35.528Z,24.18
2022-10-17T12:23:39.014Z,24.13
2022-10-17T12:26:41.251Z,24.18
2022-10-17T12:29:43.516Z,24.22
2022-10-17T12:33:07.836Z,24.26
2022-10-17T12:36:22.601Z,24.29
2022-10-17T12:39:24.702Z,24.26
2022-10-17T12:42:31.874Z,24.25
2022-10-17T12:45:51.401Z,24.21
2022-10-17T12:49:01.522Z,24.21
2022-10-17T12:52:20.869Z,24.23
2022-10-17T12:55:26.626Z,24.19
2022-10-17T12:58:30.705Z,24.16
2022-10-17T13:01:36.763Z,24.18
2022-10-17T13:04:39.070Z,24.21
2022-10-17T13:07:44.109Z,24.24
2022-10-17T13:10:51.598Z,24.25
2022-10-17T13:13:58.260Z,24.24
2022-10-17T13:17:05.513Z,24.23
2022-10-17T13:20:24.530Z,24.21
2022-10-17T13:23:34.769Z,24.22
2022-10-17T13:26:36.934Z,24.22
2022-10-17T13:29:44.388Z,24.23
2022-10-17T13:32:46.575Z,24.17
2022-10-17T13:36:00.113Z,24.17
2022-10-17T13:39:16.939Z,24.19
2022-10-17T13:42:39.378Z,24.20
2022-10-17T13:45:46.996Z,24.15
2022-10-17T13:48:49.649Z,24.09
2022-10-17T13:51:54.080Z,24.10
2022-10-17T13:55:08.174Z,24.09
2022-10-17T13:58:17.522Z,24.04
2022-10-17T14:01:21.127Z,24.02
2022-10-17T14:04:23.331Z,24.06
2022-10-17T14:08:11.325Z,24.04
2022-10-17T14:11:22.732Z,24.05
2022-10-17T14:14:26.143Z,24.08
2022-10-17T14:17:30.089Z,24.08
2022-10-17T14:21:30.406Z,24.04
2022-10-17T14:24:14.302Z,23.99
2022-10-17T14:27:39.695Z,23.98
2022-10-17T14:30:56.903Z,23.99
2022-10-17T14:34:01.752Z,23.97
2022-10-17T14:37:10.549Z,23.99
2022-10-17T14:40:17.860Z,23.97
2022-10-17T14:43:23.714Z,23.97
2022-10-17T14:46:26.353Z,23.96
2022-10-17T14:49:34.655Z,23.96
2022-10-17T14:52:38.858Z,23.94
2022-10-17T14:55:55.759Z,23.90
2022-10-17T14:58:57.988Z,23.89
2022-10-17T15:02:00.145Z,23.87
2022-10-17T15:05:02.284Z,23.85
2022-10-17T15:08:12.881Z,23.82
2022-10-17T15:11:15.023Z,23.80
2022-10-17T15:14:17.206Z,23.79
2022-10-17T15:17:23.384Z,23.78
2022-10-17T15:20:27.981Z,23.77
2022-10-17T15:23:30.116Z,23.74
2022-10-17T15:26:34.096Z,23.73
2022-10-17T15:29:36.298Z,23.72
2022-10-17T15:32:38.479Z,23.72
2022-10-17T15:35:42.617Z,23.69
2022-10-17T15:38:44.785Z,23.66
2022-10-17T15:41:48.082Z,23.68
2022-10-17T15:44:50.456Z,23.62
2022-10-17T15:47:55.838Z,23.63
2022-10-17T15:50:59.099Z,23.61
2022-10-17T15:54:02.194Z,23.59
2022-10-17T15:57:04.498Z,23.56
2022-10-17T16:00:16.557Z,23.55
2022-10-17T16:03:19.076Z,23.53
2022-10-17T16:06:22.818Z,23.49
2022-10-17T16:09:25.095Z,23.45
2022-10-17T16:12:29.030Z,23.47
2022-10-17T16:15:31.239Z,23.44
2022-10-17T16:18:33.386Z,23.43
2022-10-17T16:21:38.033Z,23.42
2022-10-17T16:24:40.234Z,23.41
2022-10-17T16:27:42.503Z,23.39
2022-10-17T16:30:46.125Z,23.38
2022-10-17T16:33:50.993Z,23.36
2022-10-17T16:36:53.154Z,23.35
2022-10-17T16:39:55.309Z,23.33
2022-10-17T16:42:57.491Z,23.33
2022-10-17T16:45:59.647Z,23.32
2022-10-17T16:49:04.145Z,23.31
2022-10-17T16:52:06.405Z,23.29
2022-10-17T16:55:09.882Z,23.27
2022-10-17T16:58:12.068Z,23.27
2022-10-17T17:01:20.005Z,23.25
2022-10-17T17:04:22.541Z,23.23
2022-10-17T17:07:24.773Z,23.22
2022-10-17T17:10:27.030Z,23.19
2022-10-17T17:13:30.086Z,23.17
2022-10-17T17:16:33.838Z,23.15
2022-10-17T17:19:36.006Z,23.13
2022-10-17T17:22:38.503Z,23.11
2022-10-17T17:25:40.726Z,23.09
2022-10-17T17:28:43.872Z,23.08
2022-10-17T17:31:47.059Z,23.06
2022-10-17T17:34:49.389Z,23.05
2022-10-17T17:37:51.633Z,23.03
2022-10-17T17:40:53.797Z,23.02
2022-10-17T17:43:56.834Z,22.99
2022-10-17T17:46:59.004Z,22.99
2022-10-17T17:50:02.380Z,22.97
2022-10-17T17:53:05.489Z,22.95
2022-10-17T17:56:10.921Z,22.94
2022-10-17T17:59:13.463Z,22.93
2022-10-17T18:02:15.899Z,22.91
2022-10-17T18:05:18.164Z,22.89
2022-10-17T18:08:20.692Z,22.88
2022-10-17T18:11:23.161Z,22.86
2022-10-17T18:14:25.882Z,22.84
2022-10-17T18:17:28.176Z,22.82
2022-10-17T18:20:30.507Z,22.81
2022-10-17T18:23:32.719Z,22.80
2022-10-17T18:26:35.296Z,22.80
2022-10-17T18:29:37.469Z,22.79
2022-10-17T18:32:40.692Z,22.76
2022-10-17T18:35:43.009Z,22.76
2022-10-17T18:38:45.304Z,22.76
2022-10-17T18:41:47.540Z,22.73
2022-10-17T18:44:49.970Z,22.71
2022-10-17T18:47:54.696Z,22.70
2022-10-17T18:50:56.861Z,22.69
2022-10-17T18:53:59.107Z,22.67
2022-10-17T18:57:01.302Z,22.65
2022-10-17T19:00:05.324Z,22.65
2022-10-17T19:03:08.317Z,22.64
2022-10-17T19:06:13.388Z,22.63
2022-10-17T19:09:16.009Z,22.63
2022-10-17T19:12:18.353Z,22.61
2022-10-17T19:15:23.734Z,22.60
2022-10-17T19:18:28.212Z,22.59
2022-10-17T19:21:30.861Z,22.56
2022-10-17T19:24:33.324Z,22.57
2022-10-17T19:27:35.756Z,22.55
2022-10-17T19:30:41.364Z,22.54
2022-10-17T19:33:43.587Z,22.53
2022-10-17T19:36:46.274Z,22.49
2022-10-17T19:39:49.218Z,22.48
2022-10-17T19:42:52.100Z,22.46
2022-10-17T19:45:59.140Z,22.39
2022-10-17T19:49:02.101Z,22.41
2022-10-17T19:52:05.610Z,22.39
2022-10-17T19:55:08.172Z,22.39
2022-10-17T19:58:10.804Z,22.40
2022-10-17T20:01:18.874Z,22.37
2022-10-17T20:04:21.928Z,22.37
2022-10-17T20:07:24.146Z,22.35
2022-10-17T20:10:26.320Z,22.34
2022-10-17T20:13:28.541Z,22.32
2022-10-17T20:16:32.440Z,22.29
2022-10-17T20:19:34.666Z,22.28
2022-10-17T20:22:36.867Z,22.27
2022-10-17T20:25:39.054Z,22.26
2022-10-17T20:28:41.855Z,22.25
2022-10-17T20:31:45.391Z,22.23
2022-10-17T20:34:47.552Z,22.22
2022-10-17T20:37:49.783Z,22.21
2022-10-17T20:40:51.965Z,22.19
2022-10-17T20:43:55.425Z,22.17
2022-10-17T20:47:02.098Z,22.17
2022-10-17T20:50:05.114Z,22.16
2022-10-17T20:53:35.025Z,22.14
2022-10-17T20:56:31.359Z,22.14
2022-10-17T20:59:36.039Z,22.13
2022-10-17T21:02:38.216Z,22.11
2022-10-17T21:05:40.583Z,22.10
2022-10-17T21:08:43.617Z,22.08
2022-10-17T21:11:45.870Z,22.06
2022-10-17T21:14:48.149Z,22.05
2022-10-17T21:17:50.298Z,22.04
2022-10-17T21:20:52.642Z,22.03
2022-10-17T21:23:58.215Z,22.03
2022-10-17T21:27:00.527Z,22.01
2022-10-17T21:30:04.538Z,21.99
2022-10-17T21:33:06.750Z,22.00
2022-10-17T21:36:09.836Z,21.98
2022-10-17T21:39:13.539Z,21.98
2022-10-17T21:42:15.746Z,21.97
2022-10-17T21:45:25.379Z,21.95
2022-10-17T21:48:27.891Z,21.95
2022-10-17T21:51:30.062Z,21.94
2022-10-17T21:54:32.259Z,21.94
2022-10-17T21:57:34.403Z,21.91
2022-10-17T22:00:36.637Z,21.91
2022-10-17T22:03:44.223Z,21.88
2022-10-17T22:06:51.236Z,21.84
2022-10-17T22:09:53.553Z,21.86
2022-10-17T22:12:55.709Z,21.85
2022-10-17T22:16:02.035Z,21.85
2022-10-17T22:19:06.665Z,21.83
2022-10-17T22:22:09.082Z,21.85
2022-10-17T22:25:11.389Z,21.80
2022-10-17T22:28:13.545Z,21.80
2022-10-17T22:31:15.755Z,21.78
2022-10-17T22:34:18.601Z,21.76
2022-10-17T22:37:20.823Z,21.76
2022-10-17T22:40:22.966Z,21.75
2022-10-17T22:43:25.220Z,21.75
2022-10-17T22:46:27.797Z,21.74
2022-10-17T22:49:29.961Z,21.72
2022-10-17T22:52:32.326Z,21.70
2022-10-17T22:55:34.696Z,21.69
2022-10-17T22:58:37.969Z,21.68
2022-10-17T23:01:40.165Z,21.67
2022-10-17T23:04:42.427Z,21.66
2022-10-17T23:07:44.580Z,21.65
2022-10-17T23:10:47.830Z,21.63
2022-10-17T23:13:50.041Z,21.62
2022-10-17T23:16:53.736Z,21.60
2022-10-17T23:19:57.720Z,21.60
2022-10-17T23:23:00.111Z,21.58
2022-10-17T23:26:11.367Z,21.56
2022-10-17T23:29:13.591Z,21.57
2022-10-17T23:32:15.750Z,21.56
2022-10-17T23:35:17.968Z,21.51
2022-10-17T23:38:20.122Z,21.54
2022-10-17T23:41:22.317Z,21.54
2022-10-17T23:44:24.542Z,21.52
2022-10-17T23:47:26.733Z,21.50
2022-10-17T23:50:28.890Z,21.50
2022-10-17T23:53:31.319Z,21.47
2022-10-17T23:56:33.506Z,21.47
2022-10-17T23:59:35.648Z,21.48
